sensor_id;sensor_type;location;lat;lon;timestamp;P1;durP1;ratioP1;P2;durP2;ratioP2
61635;SDS011;59438;45.014;39.006;2023-05-10T00:01:57;9.38;;;5.43;;
61635;SDS011;59438;45.014;39.006;2023-05-10T00:04:23;5.80;;;4.75;;
61635;SDS011;59438;45.014;39.006;2023-05-10T00:06:50;6.25;;;4.80;;
61635;SDS011;59438;45.014;39.006;2023-05-10T00:09:16;6.55;;;4.60;;
61635;SDS011;59438;45.014;39.006;2023-05-10T00:11:43;6.70;;;4.88;;
61635;SDS011;59438;45.014;39.006;2023-05-10T00:14:09;6.10;;;4.43;;
61635;SDS011;59438;45.014;39.006;2023-05-10T00:16:37;6.30;;;4.97;;
61635;SDS011;59438;45.014;39.006;2023-05-10T00:19:03;7.07;;;4.10;;
61635;SDS011;59438;45.014;39.006;2023-05-10T00:21:29;5.03;;;4.03;;
61635;SDS011;59438;45.014;39.006;2023-05-10T00:23:56;6.88;;;4.22;;
61635;SDS011;59438;45.014;39.006;2023-05-10T00:26:22;5.80;;;3.72;;
61635;SDS011;59438;45.014;39.006;2023-05-10T00:28:48;6.05;;;3.60;;
61635;SDS011;59438;45.014;39.006;2023-05-10T00:31:15;4.85;;;3.67;;
61635;SDS011;59438;45.014;39.006;2023-05-10T00:33:42;4.43;;;3.42;;
61635;SDS011;59438;45.014;39.006;2023-05-10T00:36:09;4.15;;;3.08;;
61635;SDS011;59438;45.014;39.006;2023-05-10T00:38:35;5.13;;;3.25;;
61635;SDS011;59438;45.014;39.006;2023-05-10T00:41:02;5.03;;;4.30;;
61635;SDS011;59438;45.014;39.006;2023-05-10T00:43:28;5.03;;;3.30;;
61635;SDS011;59438;45.014;39.006;2023-05-10T00:45:54;5.47;;;3.45;;
61635;SDS011;59438;45.014;39.006;2023-05-10T00:48:21;4.28;;;3.20;;
61635;SDS011;59438;45.014;39.006;2023-05-10T00:50:49;5.00;;;3.28;;
61635;SDS011;59438;45.014;39.006;2023-05-10T00:53:16;4.38;;;3.20;;
61635;SDS011;59438;45.014;39.006;2023-05-10T00:55:42;4.85;;;3.03;;
61635;SDS011;59438;45.014;39.006;2023-05-10T00:58:09;3.65;;;3.15;;
61635;SDS011;59438;45.014;39.006;2023-05-10T01:00:35;3.90;;;2.80;;
61635;SDS011;59438;45.014;39.006;2023-05-10T01:03:03;4.03;;;2.67;;
61635;SDS011;59438;45.014;39.006;2023-05-10T01:05:30;5.95;;;2.50;;
61635;SDS011;59438;45.014;39.006;2023-05-10T01:07:58;3.03;;;2.50;;
61635;SDS011;59438;45.014;39.006;2023-05-10T01:10:24;3.97;;;2.47;;
61635;SDS011;59438;45.014;39.006;2023-05-10T01:12:50;4.57;;;2.33;;
61635;SDS011;59438;45.014;39.006;2023-05-10T01:15:17;3.40;;;2.65;;
61635;SDS011;59438;45.014;39.006;2023-05-10T01:17:45;4.28;;;3.00;;
61635;SDS011;59438;45.014;39.006;2023-05-10T01:20:12;4.30;;;2.35;;
61635;SDS011;59438;45.014;39.006;2023-05-10T01:22:51;3.58;;;2.72;;
61635;SDS011;59438;45.014;39.006;2023-05-10T01:25:32;4.22;;;2.80;;
61635;SDS011;59438;45.014;39.006;2023-05-10T01:28:26;3.80;;;3.05;;
61635;SDS011;59438;45.014;39.006;2023-05-10T01:31:30;4.65;;;2.78;;
61635;SDS011;59438;45.014;39.006;2023-05-10T01:34:12;3.53;;;2.90;;
61635;SDS011;59438;45.014;39.006;2023-05-10T01:36:43;3.45;;;2.67;;
61635;SDS011;59438;45.014;39.006;2023-05-10T01:39:16;3.00;;;2.50;;
61635;SDS011;59438;45.014;39.006;2023-05-10T01:41:49;2.97;;;2.58;;
61635;SDS011;59438;45.014;39.006;2023-05-10T01:44:22;4.13;;;2.80;;
61635;SDS011;59438;45.014;39.006;2023-05-10T01:46:57;4.13;;;2.85;;
61635;SDS011;59438;45.014;39.006;2023-05-10T01:49:30;2.50;;;2.05;;
61635;SDS011;59438;45.014;39.006;2023-05-10T01:52:01;2.67;;;2.17;;
61635;SDS011;59438;45.014;39.006;2023-05-10T01:54:34;3.28;;;2.20;;
61635;SDS011;59438;45.014;39.006;2023-05-10T01:57:05;3.65;;;1.92;;
61635;SDS011;59438;45.014;39.006;2023-05-10T01:59:34;3.67;;;2.20;;
61635;SDS011;59438;45.014;39.006;2023-05-10T02:02:01;2.78;;;2.30;;
61635;SDS011;59438;45.014;39.006;2023-05-10T02:04:29;2.60;;;2.15;;
61635;SDS011;59438;45.014;39.006;2023-05-10T02:06:56;2.80;;;2.20;;
61635;SDS011;59438;45.014;39.006;2023-05-10T02:09:23;3.63;;;2.40;;
61635;SDS011;59438;45.014;39.006;2023-05-10T02:11:53;6.05;;;2.40;;
61635;SDS011;59438;45.014;39.006;2023-05-10T02:14:20;3.78;;;2.20;;
61635;SDS011;59438;45.014;39.006;2023-05-10T02:16:47;3.33;;;2.28;;
61635;SDS011;59438;45.014;39.006;2023-05-10T02:19:16;3.30;;;2.10;;
61635;SDS011;59438;45.014;39.006;2023-05-10T02:21:47;5.03;;;2.20;;
61635;SDS011;59438;45.014;39.006;2023-05-10T02:24:14;2.75;;;2.22;;
61635;SDS011;59438;45.014;39.006;2023-05-10T02:26:42;2.78;;;2.40;;
61635;SDS011;59438;45.014;39.006;2023-05-10T02:29:11;3.03;;;2.25;;
61635;SDS011;59438;45.014;39.006;2023-05-10T02:31:38;3.53;;;2.80;;
61635;SDS011;59438;45.014;39.006;2023-05-10T02:34:05;3.72;;;2.60;;
61635;SDS011;59438;45.014;39.006;2023-05-10T02:36:33;4.47;;;3.03;;
61635;SDS011;59438;45.014;39.006;2023-05-10T02:39:02;4.72;;;3.00;;
61635;SDS011;59438;45.014;39.006;2023-05-10T02:41:30;3.90;;;2.70;;
61635;SDS011;59438;45.014;39.006;2023-05-10T02:43:59;5.22;;;2.50;;
61635;SDS011;59438;45.014;39.006;2023-05-10T02:46:28;5.35;;;2.85;;
61635;SDS011;59438;45.014;39.006;2023-05-10T02:48:54;4.63;;;2.38;;
61635;SDS011;59438;45.014;39.006;2023-05-10T02:51:21;4.68;;;2.40;;
61635;SDS011;59438;45.014;39.006;2023-05-10T02:53:53;3.38;;;2.00;;
61635;SDS011;59438;45.014;39.006;2023-05-10T02:56:24;1.95;;;1.60;;
61635;SDS011;59438;45.014;39.006;2023-05-10T02:58:58;2.17;;;1.70;;
61635;SDS011;59438;45.014;39.006;2023-05-10T03:01:25;3.05;;;1.60;;
61635;SDS011;59438;45.014;39.006;2023-05-10T03:03:51;3.72;;;2.03;;
61635;SDS011;59438;45.014;39.006;2023-05-10T03:06:17;1.92;;;1.73;;
61635;SDS011;59438;45.014;39.006;2023-05-10T03:08:44;2.80;;;1.92;;
61635;SDS011;59438;45.014;39.006;2023-05-10T03:11:21;2.50;;;2.15;;
61635;SDS011;59438;45.014;39.006;2023-05-10T03:14:02;2.30;;;1.90;;
61635;SDS011;59438;45.014;39.006;2023-05-10T03:16:37;3.30;;;2.25;;
61635;SDS011;59438;45.014;39.006;2023-05-10T03:19:10;3.30;;;2.25;;
61635;SDS011;59438;45.014;39.006;2023-05-10T03:21:41;2.80;;;2.20;;
61635;SDS011;59438;45.014;39.006;2023-05-10T03:24:10;3.03;;;2.50;;
61635;SDS011;59438;45.014;39.006;2023-05-10T03:26:40;3.97;;;2.30;;
61635;SDS011;59438;45.014;39.006;2023-05-10T03:31:37;4.55;;;2.25;;
61635;SDS011;59438;45.014;39.006;2023-05-10T03:34:04;2.42;;;1.95;;
61635;SDS011;59438;45.014;39.006;2023-05-10T03:36:30;3.40;;;2.35;;
61635;SDS011;59438;45.014;39.006;2023-05-10T03:38:57;2.88;;;2.22;;
61635;SDS011;59438;45.014;39.006;2023-05-10T03:41:23;4.15;;;2.20;;
61635;SDS011;59438;45.014;39.006;2023-05-10T03:43:51;2.42;;;1.90;;
61635;SDS011;59438;45.014;39.006;2023-05-10T03:46:17;2.75;;;1.90;;
61635;SDS011;59438;45.014;39.006;2023-05-10T03:48:43;2.53;;;1.70;;
61635;SDS011;59438;45.014;39.006;2023-05-10T03:51:10;2.88;;;1.55;;
61635;SDS011;59438;45.014;39.006;2023-05-10T03:53:36;1.63;;;1.42;;
61635;SDS011;59438;45.014;39.006;2023-05-10T03:56:03;2.40;;;1.50;;
61635;SDS011;59438;45.014;39.006;2023-05-10T03:58:29;2.00;;;1.50;;
61635;SDS011;59438;45.014;39.006;2023-05-10T04:00:57;1.55;;;1.40;;
61635;SDS011;59438;45.014;39.006;2023-05-10T04:03:23;3.15;;;1.65;;
61635;SDS011;59438;45.014;39.006;2023-05-10T04:05:52;2.00;;;1.40;;
61635;SDS011;59438;45.014;39.006;2023-05-10T04:08:24;1.75;;;1.40;;
61635;SDS011;59438;45.014;39.006;2023-05-10T04:10:50;2.17;;;1.30;;
61635;SDS011;59438;45.014;39.006;2023-05-10T04:13:17;3.83;;;1.50;;
61635;SDS011;59438;45.014;39.006;2023-05-10T04:15:43;3.08;;;1.30;;
61635;SDS011;59438;45.014;39.006;2023-05-10T04:18:11;1.25;;;0.77;;
61635;SDS011;59438;45.014;39.006;2023-05-10T04:20:37;1.50;;;0.80;;
61635;SDS011;59438;45.014;39.006;2023-05-10T04:23:03;0.90;;;0.70;;
61635;SDS011;59438;45.014;39.006;2023-05-10T04:25:30;1.60;;;0.80;;
61635;SDS011;59438;45.014;39.006;2023-05-10T04:27:59;0.77;;;0.77;;
61635;SDS011;59438;45.014;39.006;2023-05-10T04:30:25;0.80;;;0.80;;
61635;SDS011;59438;45.014;39.006;2023-05-10T04:32:52;1.08;;;0.90;;
61635;SDS011;59438;45.014;39.006;2023-05-10T04:35:19;1.27;;;1.17;;
61635;SDS011;59438;45.014;39.006;2023-05-10T04:37:46;1.20;;;1.02;;
61635;SDS011;59438;45.014;39.006;2023-05-10T04:40:12;1.58;;;1.27;;
61635;SDS011;59438;45.014;39.006;2023-05-10T04:42:39;3.63;;;1.17;;
61635;SDS011;59438;45.014;39.006;2023-05-10T04:45:06;1.58;;;1.20;;
61635;SDS011;59438;45.014;39.006;2023-05-10T04:47:33;1.55;;;1.00;;
61635;SDS011;59438;45.014;39.006;2023-05-10T04:49:59;2.28;;;1.10;;
61635;SDS011;59438;45.014;39.006;2023-05-10T04:52:27;1.10;;;1.00;;
61635;SDS011;59438;45.014;39.006;2023-05-10T04:54:53;1.30;;;1.20;;
61635;SDS011;59438;45.014;39.006;2023-05-10T04:57:20;1.70;;;1.25;;
61635;SDS011;59438;45.014;39.006;2023-05-10T04:59:46;1.52;;;1.13;;
61635;SDS011;59438;45.014;39.006;2023-05-10T05:02:13;1.65;;;1.10;;
61635;SDS011;59438;45.014;39.006;2023-05-10T05:04:39;2.28;;;1.40;;
61635;SDS011;59438;45.014;39.006;2023-05-10T05:07:05;3.75;;;1.40;;
61635;SDS011;59438;45.014;39.006;2023-05-10T05:09:33;1.25;;;1.15;;
61635;SDS011;59438;45.014;39.006;2023-05-10T05:12:00;3.47;;;1.55;;
61635;SDS011;59438;45.014;39.006;2023-05-10T05:14:26;3.33;;;1.60;;
61635;SDS011;59438;45.014;39.006;2023-05-10T05:16:52;2.22;;;1.70;;
61635;SDS011;59438;45.014;39.006;2023-05-10T05:19:19;3.63;;;1.70;;
61635;SDS011;59438;45.014;39.006;2023-05-10T05:21:45;4.70;;;1.98;;
61635;SDS011;59438;45.014;39.006;2023-05-10T05:24:11;2.38;;;1.63;;
61635;SDS011;59438;45.014;39.006;2023-05-10T05:26:39;2.33;;;1.88;;
61635;SDS011;59438;45.014;39.006;2023-05-10T05:29:06;3.05;;;1.90;;
61635;SDS011;59438;45.014;39.006;2023-05-10T05:31:32;3.40;;;1.80;;
61635;SDS011;59438;45.014;39.006;2023-05-10T05:33:59;2.22;;;1.80;;
61635;SDS011;59438;45.014;39.006;2023-05-10T05:36:25;3.83;;;2.08;;
61635;SDS011;59438;45.014;39.006;2023-05-10T05:38:51;2.58;;;2.08;;
61635;SDS011;59438;45.014;39.006;2023-05-10T05:41:18;3.33;;;2.28;;
61635;SDS011;59438;45.014;39.006;2023-05-10T05:43:45;2.60;;;1.90;;
61635;SDS011;59438;45.014;39.006;2023-05-10T05:46:12;2.50;;;1.90;;
61635;SDS011;59438;45.014;39.006;2023-05-10T05:48:38;8.27;;;2.38;;
61635;SDS011;59438;45.014;39.006;2023-05-10T05:51:04;3.33;;;2.30;;
61635;SDS011;59438;45.014;39.006;2023-05-10T05:53:31;3.85;;;2.13;;
61635;SDS011;59438;45.014;39.006;2023-05-10T05:55:57;4.07;;;2.10;;
61635;SDS011;59438;45.014;39.006;2023-05-10T05:58:24;4.55;;;2.25;;
61635;SDS011;59438;45.014;39.006;2023-05-10T06:00:52;2.67;;;2.10;;
61635;SDS011;59438;45.014;39.006;2023-05-10T06:03:19;4.03;;;1.80;;
61635;SDS011;59438;45.014;39.006;2023-05-10T06:05:45;2.97;;;2.03;;
61635;SDS011;59438;45.014;39.006;2023-05-10T06:08:12;5.65;;;2.05;;
61635;SDS011;59438;45.014;39.006;2023-05-10T06:10:38;2.25;;;1.80;;
61635;SDS011;59438;45.014;39.006;2023-05-10T06:13:04;2.58;;;1.80;;
61635;SDS011;59438;45.014;39.006;2023-05-10T06:15:31;3.05;;;1.90;;
61635;SDS011;59438;45.014;39.006;2023-05-10T06:17:59;2.80;;;2.08;;
61635;SDS011;59438;45.014;39.006;2023-05-10T06:20:25;2.80;;;2.10;;
61635;SDS011;59438;45.014;39.006;2023-05-10T06:22:51;4.32;;;2.15;;
61635;SDS011;59438;45.014;39.006;2023-05-10T06:25:18;3.53;;;2.50;;
61635;SDS011;59438;45.014;39.006;2023-05-10T06:27:44;4.97;;;2.63;;
61635;SDS011;59438;45.014;39.006;2023-05-10T06:30:10;5.20;;;2.70;;
61635;SDS011;59438;45.014;39.006;2023-05-10T06:32:37;4.03;;;2.42;;
61635;SDS011;59438;45.014;39.006;2023-05-10T06:35:06;5.80;;;2.53;;
61635;SDS011;59438;45.014;39.006;2023-05-10T06:37:33;3.60;;;2.35;;
61635;SDS011;59438;45.014;39.006;2023-05-10T06:39:59;3.72;;;2.15;;
61635;SDS011;59438;45.014;39.006;2023-05-10T06:42:25;2.50;;;2.08;;
61635;SDS011;59438;45.014;39.006;2023-05-10T06:44:52;3.63;;;2.38;;
61635;SDS011;59438;45.014;39.006;2023-05-10T06:47:18;6.03;;;2.60;;
61635;SDS011;59438;45.014;39.006;2023-05-10T06:49:45;2.67;;;2.40;;
61635;SDS011;59438;45.014;39.006;2023-05-10T06:52:12;3.97;;;2.35;;
61635;SDS011;59438;45.014;39.006;2023-05-10T06:54:39;4.63;;;2.60;;
61635;SDS011;59438;45.014;39.006;2023-05-10T06:57:05;3.33;;;2.30;;
61635;SDS011;59438;45.014;39.006;2023-05-10T06:59:31;6.18;;;2.20;;
61635;SDS011;59438;45.014;39.006;2023-05-10T07:01:58;2.10;;;1.70;;
61635;SDS011;59438;45.014;39.006;2023-05-10T07:04:24;2.63;;;1.98;;
61635;SDS011;59438;45.014;39.006;2023-05-10T07:06:50;2.58;;;1.73;;
61635;SDS011;59438;45.014;39.006;2023-05-10T07:09:18;4.25;;;2.47;;
61635;SDS011;59438;45.014;39.006;2023-05-10T07:11:44;3.67;;;1.90;;
61635;SDS011;59438;45.014;39.006;2023-05-10T07:14:11;2.40;;;1.67;;
61635;SDS011;59438;45.014;39.006;2023-05-10T07:16:37;3.70;;;1.77;;
61635;SDS011;59438;45.014;39.006;2023-05-10T07:19:03;1.60;;;1.50;;
61635;SDS011;59438;45.014;39.006;2023-05-10T07:21:30;2.80;;;1.50;;
61635;SDS011;59438;45.014;39.006;2023-05-10T07:23:56;4.75;;;1.77;;
61635;SDS011;59438;45.014;39.006;2023-05-10T07:26:24;1.48;;;1.38;;
61635;SDS011;59438;45.014;39.006;2023-05-10T07:28:50;2.45;;;1.80;;
61635;SDS011;59438;45.014;39.006;2023-05-10T07:31:17;3.10;;;1.60;;
61635;SDS011;59438;45.014;39.006;2023-05-10T07:33:43;3.30;;;1.92;;
61635;SDS011;59438;45.014;39.006;2023-05-10T07:36:09;3.05;;;1.80;;
61635;SDS011;59438;45.014;39.006;2023-05-10T07:38:36;1.80;;;1.50;;
61635;SDS011;59438;45.014;39.006;2023-05-10T07:41:02;1.92;;;1.30;;
61635;SDS011;59438;45.014;39.006;2023-05-10T07:43:30;1.80;;;1.33;;
61635;SDS011;59438;45.014;39.006;2023-05-10T07:45:56;1.85;;;1.20;;
61635;SDS011;59438;45.014;39.006;2023-05-10T07:48:23;1.77;;;1.48;;
61635;SDS011;59438;45.014;39.006;2023-05-10T07:50:49;1.85;;;1.33;;
61635;SDS011;59438;45.014;39.006;2023-05-10T07:53:15;3.00;;;1.23;;
61635;SDS011;59438;45.014;39.006;2023-05-10T07:55:42;1.60;;;1.30;;
61635;SDS011;59438;45.014;39.006;2023-05-10T07:58:08;4.07;;;1.50;;
61635;SDS011;59438;45.014;39.006;2023-05-10T08:00:36;6.00;;;1.80;;
61635;SDS011;59438;45.014;39.006;2023-05-10T08:03:02;2.25;;;1.50;;
61635;SDS011;59438;45.014;39.006;2023-05-10T08:05:29;3.80;;;1.67;;
61635;SDS011;59438;45.014;39.006;2023-05-10T08:07:55;2.67;;;1.48;;
61635;SDS011;59438;45.014;39.006;2023-05-10T08:10:21;2.15;;;1.48;;
61635;SDS011;59438;45.014;39.006;2023-05-10T08:12:48;6.68;;;1.50;;
61635;SDS011;59438;45.014;39.006;2023-05-10T08:15:14;3.00;;;1.50;;
61635;SDS011;59438;45.014;39.006;2023-05-10T08:17:42;2.28;;;1.20;;
61635;SDS011;59438;45.014;39.006;2023-05-10T08:20:08;2.17;;;1.40;;
61635;SDS011;59438;45.014;39.006;2023-05-10T08:22:35;2.15;;;1.38;;
61635;SDS011;59438;45.014;39.006;2023-05-10T08:25:02;1.75;;;1.30;;
61635;SDS011;59438;45.014;39.006;2023-05-10T08:27:28;2.65;;;1.70;;
61635;SDS011;59438;45.014;39.006;2023-05-10T08:29:54;6.60;;;1.67;;
61635;SDS011;59438;45.014;39.006;2023-05-10T08:32:21;3.95;;;1.80;;
61635;SDS011;59438;45.014;39.006;2023-05-10T08:34:48;3.55;;;1.60;;
61635;SDS011;59438;45.014;39.006;2023-05-10T08:37:15;3.10;;;1.35;;
61635;SDS011;59438;45.014;39.006;2023-05-10T08:39:41;2.05;;;1.42;;
61635;SDS011;59438;45.014;39.006;2023-05-10T08:42:07;4.78;;;1.30;;
61635;SDS011;59438;45.014;39.006;2023-05-10T08:44:35;4.97;;;1.80;;
61635;SDS011;59438;45.014;39.006;2023-05-10T08:47:03;1.75;;;1.20;;
61635;SDS011;59438;45.014;39.006;2023-05-10T08:49:31;3.72;;;1.58;;
61635;SDS011;59438;45.014;39.006;2023-05-10T08:52:00;1.98;;;1.50;;
61635;SDS011;59438;45.014;39.006;2023-05-10T08:54:28;3.58;;;1.85;;
61635;SDS011;59438;45.014;39.006;2023-05-10T08:56:55;4.78;;;1.55;;
61635;SDS011;59438;45.014;39.006;2023-05-10T08:59:22;2.22;;;1.60;;
61635;SDS011;59438;45.014;39.006;2023-05-10T09:01:48;2.60;;;1.50;;
61635;SDS011;59438;45.014;39.006;2023-05-10T09:04:16;4.22;;;1.38;;
61635;SDS011;59438;45.014;39.006;2023-05-10T09:06:42;1.42;;;1.15;;
61635;SDS011;59438;45.014;39.006;2023-05-10T09:09:10;4.78;;;1.40;;
61635;SDS011;59438;45.014;39.006;2023-05-10T09:11:37;4.07;;;1.40;;
61635;SDS011;59438;45.014;39.006;2023-05-10T09:14:04;2.83;;;1.50;;
61635;SDS011;59438;45.014;39.006;2023-05-10T09:16:30;2.88;;;1.40;;
61635;SDS011;59438;45.014;39.006;2023-05-10T09:18:56;1.35;;;1.25;;
61635;SDS011;59438;45.014;39.006;2023-05-10T09:21:23;5.65;;;1.65;;
61635;SDS011;59438;45.014;39.006;2023-05-10T09:23:49;7.45;;;1.40;;
61635;SDS011;59438;45.014;39.006;2023-05-10T09:26:17;1.13;;;0.98;;
61635;SDS011;59438;45.014;39.006;2023-05-10T09:28:51;2.20;;;1.05;;
61635;SDS011;59438;45.014;39.006;2023-05-10T09:31:19;2.35;;;1.00;;
61635;SDS011;59438;45.014;39.006;2023-05-10T09:33:46;1.95;;;1.02;;
61635;SDS011;59438;45.014;39.006;2023-05-10T09:36:13;1.15;;;1.02;;
61635;SDS011;59438;45.014;39.006;2023-05-10T09:38:47;2.42;;;1.00;;
61635;SDS011;59438;45.014;39.006;2023-05-10T09:41:19;2.78;;;1.30;;
61635;SDS011;59438;45.014;39.006;2023-05-10T09:43:47;1.35;;;1.10;;
61635;SDS011;59438;45.014;39.006;2023-05-10T09:46:14;5.82;;;1.20;;
61635;SDS011;59438;45.014;39.006;2023-05-10T09:48:41;2.83;;;1.40;;
61635;SDS011;59438;45.014;39.006;2023-05-10T09:51:08;1.20;;;1.10;;
61635;SDS011;59438;45.014;39.006;2023-05-10T09:53:35;2.25;;;1.00;;
61635;SDS011;59438;45.014;39.006;2023-05-10T09:56:01;1.70;;;1.23;;
61635;SDS011;59438;45.014;39.006;2023-05-10T09:58:30;3.20;;;1.20;;
61635;SDS011;59438;45.014;39.006;2023-05-10T10:00:56;2.95;;;1.25;;
61635;SDS011;59438;45.014;39.006;2023-05-10T10:03:24;2.50;;;1.20;;
61635;SDS011;59438;45.014;39.006;2023-05-10T10:05:51;3.28;;;1.23;;
61635;SDS011;59438;45.014;39.006;2023-05-10T10:08:19;2.92;;;1.35;;
61635;SDS011;59438;45.014;39.006;2023-05-10T10:10:46;1.40;;;1.10;;
61635;SDS011;59438;45.014;39.006;2023-05-10T10:13:13;1.20;;;0.90;;
61635;SDS011;59438;45.014;39.006;2023-05-10T10:15:41;8.52;;;1.50;;
61635;SDS011;59438;45.014;39.006;2023-05-10T10:18:08;2.33;;;1.30;;
61635;SDS011;59438;45.014;39.006;2023-05-10T10:20:39;4.07;;;1.13;;
61635;SDS011;59438;45.014;39.006;2023-05-10T10:23:08;3.83;;;1.23;;
61635;SDS011;59438;45.014;39.006;2023-05-10T10:25:34;4.55;;;1.17;;
61635;SDS011;59438;45.014;39.006;2023-05-10T10:28:07;2.53;;;1.20;;
61635;SDS011;59438;45.014;39.006;2023-05-10T10:30:43;2.17;;;1.20;;
61635;SDS011;59438;45.014;39.006;2023-05-10T10:33:27;4.43;;;1.65;;
61635;SDS011;59438;45.014;39.006;2023-05-10T10:36:02;2.95;;;1.38;;
61635;SDS011;59438;45.014;39.006;2023-05-10T10:38:36;1.92;;;1.30;;
61635;SDS011;59438;45.014;39.006;2023-05-10T10:41:08;2.33;;;1.30;;
61635;SDS011;59438;45.014;39.006;2023-05-10T10:43:35;3.45;;;1.40;;
61635;SDS011;59438;45.014;39.006;2023-05-10T10:46:13;1.50;;;1.30;;
61635;SDS011;59438;45.014;39.006;2023-05-10T10:48:40;2.03;;;1.38;;
61635;SDS011;59438;45.014;39.006;2023-05-10T10:51:07;4.22;;;1.30;;
61635;SDS011;59438;45.014;39.006;2023-05-10T10:53:34;4.82;;;1.58;;
61635;SDS011;59438;45.014;39.006;2023-05-10T10:56:04;7.00;;;1.30;;
61635;SDS011;59438;45.014;39.006;2023-05-10T10:58:33;4.03;;;1.15;;
61635;SDS011;59438;45.014;39.006;2023-05-10T11:01:10;2.83;;;1.25;;
61635;SDS011;59438;45.014;39.006;2023-05-10T11:03:54;1.33;;;1.15;;
61635;SDS011;59438;45.014;39.006;2023-05-10T11:06:35;4.05;;;1.40;;
61635;SDS011;59438;45.014;39.006;2023-05-10T11:09:05;23.75;;;1.83;;
61635;SDS011;59438;45.014;39.006;2023-05-10T11:11:34;2.05;;;1.30;;
61635;SDS011;59438;45.014;39.006;2023-05-10T11:14:02;1.38;;;1.13;;
61635;SDS011;59438;45.014;39.006;2023-05-10T11:16:40;3.45;;;1.40;;
61635;SDS011;59438;45.014;39.006;2023-05-10T11:19:07;3.60;;;1.40;;
61635;SDS011;59438;45.014;39.006;2023-05-10T11:21:44;1.73;;;1.38;;
61635;SDS011;59438;45.014;39.006;2023-05-10T11:24:12;1.30;;;1.20;;
61635;SDS011;59438;45.014;39.006;2023-05-10T11:26:40;3.38;;;1.10;;
61635;SDS011;59438;45.014;39.006;2023-05-10T11:29:06;2.33;;;1.27;;
61635;SDS011;59438;45.014;39.006;2023-05-10T11:31:33;4.75;;;1.48;;
61635;SDS011;59438;45.014;39.006;2023-05-10T11:34:01;3.50;;;1.75;;
61635;SDS011;59438;45.014;39.006;2023-05-10T11:36:28;1.67;;;1.30;;
61635;SDS011;59438;45.014;39.006;2023-05-10T11:38:55;1.20;;;1.10;;
61635;SDS011;59438;45.014;39.006;2023-05-10T11:41:22;2.17;;;1.23;;
61635;SDS011;59438;45.014;39.006;2023-05-10T11:43:50;1.92;;;1.23;;
61635;SDS011;59438;45.014;39.006;2023-05-10T11:46:18;7.65;;;2.35;;
61635;SDS011;59438;45.014;39.006;2023-05-10T11:48:45;3.70;;;1.30;;
61635;SDS011;59438;45.014;39.006;2023-05-10T11:51:19;2.80;;;1.40;;
61635;SDS011;59438;45.014;39.006;2023-05-10T11:53:46;2.60;;;1.30;;
61635;SDS011;59438;45.014;39.006;2023-05-10T11:56:13;15.20;;;1.55;;
61635;SDS011;59438;45.014;39.006;2023-05-10T11:58:40;2.28;;;1.40;;
61635;SDS011;59438;45.014;39.006;2023-05-10T12:01:07;2.63;;;1.10;;
61635;SDS011;59438;45.014;39.006;2023-05-10T12:03:34;1.90;;;1.58;;
61635;SDS011;59438;45.014;39.006;2023-05-10T12:06:01;4.13;;;1.50;;
61635;SDS011;59438;45.014;39.006;2023-05-10T12:08:29;2.58;;;1.40;;
61635;SDS011;59438;45.014;39.006;2023-05-10T12:11:03;3.70;;;1.42;;
61635;SDS011;59438;45.014;39.006;2023-05-10T12:13:31;3.72;;;1.58;;
61635;SDS011;59438;45.014;39.006;2023-05-10T12:15:57;6.55;;;1.55;;
61635;SDS011;59438;45.014;39.006;2023-05-10T12:18:24;3.38;;;1.52;;
61635;SDS011;59438;45.014;39.006;2023-05-10T12:20:51;3.20;;;1.58;;
61635;SDS011;59438;45.014;39.006;2023-05-10T12:23:18;2.97;;;1.50;;
61635;SDS011;59438;45.014;39.006;2023-05-10T12:25:47;2.70;;;1.20;;
61635;SDS011;59438;45.014;39.006;2023-05-10T12:28:14;2.70;;;1.27;;
61635;SDS011;59438;45.014;39.006;2023-05-10T12:30:40;4.45;;;1.50;;
61635;SDS011;59438;45.014;39.006;2023-05-10T12:33:07;3.75;;;1.60;;
61635;SDS011;59438;45.014;39.006;2023-05-10T12:35:43;2.45;;;1.38;;
61635;SDS011;59438;45.014;39.006;2023-05-10T12:38:24;3.20;;;1.48;;
61635;SDS011;59438;45.014;39.006;2023-05-10T12:40:56;2.45;;;1.45;;
61635;SDS011;59438;45.014;39.006;2023-05-10T12:43:23;1.88;;;1.25;;
61635;SDS011;59438;45.014;39.006;2023-05-10T12:45:50;4.13;;;1.50;;
61635;SDS011;59438;45.014;39.006;2023-05-10T12:48:16;1.90;;;1.50;;
61635;SDS011;59438;45.014;39.006;2023-05-10T12:50:43;2.60;;;1.58;;
61635;SDS011;59438;45.014;39.006;2023-05-10T12:53:09;1.80;;;1.40;;
61635;SDS011;59438;45.014;39.006;2023-05-10T12:55:36;1.40;;;1.13;;
61635;SDS011;59438;45.014;39.006;2023-05-10T12:58:03;3.58;;;1.10;;
61635;SDS011;59438;45.014;39.006;2023-05-10T13:00:30;1.35;;;1.25;;
61635;SDS011;59438;45.014;39.006;2023-05-10T13:02:57;2.15;;;1.13;;
61635;SDS011;59438;45.014;39.006;2023-05-10T13:05:23;2.58;;;1.38;;
61635;SDS011;59438;45.014;39.006;2023-05-10T13:07:49;2.75;;;1.55;;
61635;SDS011;59438;45.014;39.006;2023-05-10T13:10:16;2.25;;;1.23;;
61635;SDS011;59438;45.014;39.006;2023-05-10T13:12:42;3.67;;;1.35;;
61635;SDS011;59438;45.014;39.006;2023-05-10T13:15:10;1.67;;;1.13;;
61635;SDS011;59438;45.014;39.006;2023-05-10T13:17:36;1.85;;;1.25;;
61635;SDS011;59438;45.014;39.006;2023-05-10T13:20:03;1.80;;;1.30;;
61635;SDS011;59438;45.014;39.006;2023-05-10T13:22:30;4.57;;;1.40;;
61635;SDS011;59438;45.014;39.006;2023-05-10T13:24:57;2.92;;;1.50;;
61635;SDS011;59438;45.014;39.006;2023-05-10T13:27:23;3.22;;;1.27;;
61635;SDS011;59438;45.014;39.006;2023-05-10T13:29:49;1.85;;;1.20;;
61635;SDS011;59438;45.014;39.006;2023-05-10T13:32:17;5.65;;;1.70;;
61635;SDS011;59438;45.014;39.006;2023-05-10T13:34:44;2.00;;;1.25;;
61635;SDS011;59438;45.014;39.006;2023-05-10T13:37:10;2.90;;;1.52;;
61635;SDS011;59438;45.014;39.006;2023-05-10T13:39:37;1.35;;;1.17;;
61635;SDS011;59438;45.014;39.006;2023-05-10T13:42:03;1.88;;;1.30;;
61635;SDS011;59438;45.014;39.006;2023-05-10T13:44:29;3.80;;;1.55;;
61635;SDS011;59438;45.014;39.006;2023-05-10T13:46:56;4.82;;;1.52;;
61635;SDS011;59438;45.014;39.006;2023-05-10T13:49:24;2.97;;;1.40;;
61635;SDS011;59438;45.014;39.006;2023-05-10T13:51:50;4.05;;;1.60;;
61635;SDS011;59438;45.014;39.006;2023-05-10T13:54:16;8.07;;;1.40;;
61635;SDS011;59438;45.014;39.006;2023-05-10T13:56:43;3.47;;;1.50;;
61635;SDS011;59438;45.014;39.006;2023-05-10T13:59:09;3.00;;;1.27;;
61635;SDS011;59438;45.014;39.006;2023-05-10T14:01:35;3.10;;;1.30;;
61635;SDS011;59438;45.014;39.006;2023-05-10T14:04:02;2.88;;;1.50;;
61635;SDS011;59438;45.014;39.006;2023-05-10T14:06:30;2.47;;;1.50;;
61635;SDS011;59438;45.014;39.006;2023-05-10T14:08:56;3.15;;;1.60;;
61635;SDS011;59438;45.014;39.006;2023-05-10T14:11:22;3.33;;;1.70;;
61635;SDS011;59438;45.014;39.006;2023-05-10T14:13:49;2.55;;;1.70;;
61635;SDS011;59438;45.014;39.006;2023-05-10T14:16:15;3.15;;;1.40;;
61635;SDS011;59438;45.014;39.006;2023-05-10T14:18:42;2.05;;;1.50;;
61635;SDS011;59438;45.014;39.006;2023-05-10T14:21:08;2.72;;;1.60;;
61635;SDS011;59438;45.014;39.006;2023-05-10T14:23:36;2.55;;;1.70;;
61635;SDS011;59438;45.014;39.006;2023-05-10T14:26:02;2.80;;;1.50;;
61635;SDS011;59438;45.014;39.006;2023-05-10T14:28:28;2.00;;;1.50;;
61635;SDS011;59438;45.014;39.006;2023-05-10T14:30:55;3.13;;;1.58;;
61635;SDS011;59438;45.014;39.006;2023-05-10T14:33:21;3.55;;;1.40;;
61635;SDS011;59438;45.014;39.006;2023-05-10T14:35:48;2.50;;;1.52;;
61635;SDS011;59438;45.014;39.006;2023-05-10T14:38:14;2.30;;;1.42;;
61635;SDS011;59438;45.014;39.006;2023-05-10T14:40:42;2.78;;;1.67;;